チェンナイ の空港の天気 - METARとTAF

チェンナイ国際空港 ( VOMM / MAA ) - インド チェンナイ
飛行場実況気象(Metar)
観測時間01/20 08:00 IST (01/20 02:30 UTC)
風向・風速西 2m/s
視程1200m
天気現象もや
少しの雲 雲底高度 610m
気温22℃
湿度88%
気圧1018hPa
METARVOMM 200230Z 27003KT 1200 R25/1300 R07/2000 BR FEW020 22/20 Q1018 NOSIG
過去の天気等 Google飛行場航空写真 Wunderground天気予報

過去48時間のMETAR

飛行場予報(TAF)
発表時間: 1/20 04:30 IST (1/19 23:00 UTC)
予報対象時間: 20日5時 IST ~ 21日11時 IST
風向・風速不定 1m/s
視程3000m
天気現象もや
全天の4割程度の雲 雲底高度 610m
20日5時 IST ~ 20日8時 IST に一時的に
視程1500m
天気現象もや
20日10時 IST ~ 20日11時 IST に徐々に
風向・風速北東 5m/s
視程4000m
天気現象煙霧
20日11時 IST ~ 20日13時 IST に徐々に
視程6000m
20日20時 IST ~ 20日21時 IST に徐々に
視程5000m
天気現象煙霧
21日2時 IST ~ 21日3時 IST に徐々に
風向・風速不定 1m/s
視程3000m
天気現象もや
21日10時 IST ~ 21日11時 IST に徐々に
風向・風速北東 5m/s
視程4000m
天気現象煙霧
TAF VOMM 192300Z 2000/2106 VRB02KT 3000 BR SCT020
TEMPO 2000/2003 1500 BR
BECMG 2005/2006 04010KT 4000 HZ
BECMG 2006/2008 6000
BECMG 2015/2016 5000 HZ
BECMG 2021/2022 VRB02KT 3000 BR
BECMG 2105/2106 04010KT 4000 HZ